Garrett, Wyoming
Current Conditions -  °F | °C
As of 1:55 AM on Friday 24 Oct 2014 (Local Time) from KGUR Reporting Station
Clear Clear  
Wind Chill: 72°   Ceiling: Unl
Heat Index: 72°   Visibility: 10mi
Dew Point: 37°   Wind: 28mph
Humidity: 28%   Direction: 250°WSW
Pressure: 30.02"   Gusts: 36mph
Location:  42.11°N, 105.61°W
Report Text: KGUR 240755Z AUTO 25024G31KT 10SM CLR 22/03 A3002 RMK AO2 T02220030
Loading
Personal Weather Stations






























Interactive Weather Map
Tropical Storm Tracking
New forecast layout! Learn more

10-Day Weather Forecast

Advertisements
Track Severe Weather on mobile